• Join FlightAware (Why Join?)
  • Login
  • US Flag 
05:04AM EDT


 

Airport Tracker/Info


-or-


 

Live Flight TrackerFlight Track Log ✈ N45NS ✈ 12-Mar-2014 ✈ KBJJ - KPWK

Flight Track Log - Related Links

Times and Time Zones

All times are in EDT time to prevent confusion due to time zone crossing. See the N45NS flight status page for this flight to view local times or setup timezone preferences in your user account.

Time Position Orientation Groundspeed Altitude Reporting Facility
EDT Latitude Longitude Course Direction KTS MPH feet Rate Location/Type
11:39AM 40.8461 -81.8225 270° West 205 236 5,200  Level Cleveland Center
11:40AM 40.8183 -81.8753 235° Southwest 210 242 8,000 2,280 Climbing Cleveland Center
11:41AM 40.8261 -81.9725 276° West 254 292 9,900 2,520 Climbing Cleveland Center
11:42AM 40.8325 -82.0653 275° West 255 293 13,200 3,000 Climbing Cleveland Center
11:43AM 40.8442 -82.1478 281° West 237 273 16,100 2,940 Climbing Cleveland Center
11:44AM 40.8667 -82.1254 270° West  Level FlightAware Approximate
11:44AM 40.9006 -82.2258 314° West 287 330 19,200  Level Cleveland Center
11:45AM 40.9589 -82.3094 313° West 303 349 21,800 2,340 Climbing Cleveland Center
11:46AM 41.0211 -82.3989 313° West 319 367 24,000 1,860 Climbing Cleveland Center
11:47AM 41.0892 -82.4958 313° West 350 403 25,700 1,920 Climbing Cleveland Center
11:48AM 41.1564 -82.5936 312° West 352 405 28,000 2,040 Climbing Cleveland Center
11:49AM 41.2222 -82.6903 312° West 352 405 29,900 960 Climbing Cleveland Center
11:50AM 41.2914 -82.7919 312° West 365 420 30,000  Climbing Cleveland Center
11:51AM 41.3686 -82.9047 312° West 403 464 30,000  Level Cleveland Center
11:52AM 41.4500 -83.0217 313° West 417 480 30,000  Level Cleveland Center
11:53AM 41.5286 -83.1397 312° West 421 484 30,000  Level Cleveland Center
11:54AM 41.6097 -83.2619 312° West 415 478 30,000  Level Cleveland Center
11:55AM 41.6881 -83.3758 313° West 413 475 30,000  Level Cleveland Center
11:56AM 41.7656 -83.4900 312° West 413 475 30,000  Level Cleveland Center
11:57AM 41.8422 -83.6042 312° West 413 475 30,000  Level Cleveland Center
11:58AM 41.9200 -83.7211 312° West 414 476 30,000  Level Cleveland Center
11:59AM 41.9989 -83.8392 312° West 418 481 30,000  Level Cleveland Center
12:00PM 42.0503 -83.9706 298° West 397 457 30,000 -240 Level Cleveland Center
12:01PM 42.0789 -84.1078 286° West 382 440 29,600 -780 Descending Cleveland Center
12:02PM 42.1067 -84.2481 285° West 385 443 28,500 -1,260 Descending Cleveland Center
12:03PM 42.1344 -84.3864 285° West 384 442 27,100 -1,260 Descending Cleveland Center
12:04PM 42.1672 -84.5536 285° West 384 442 26,000 -540 Descending Cleveland Center
12:05PM 42.1928 -84.6811 285° West 385 443 26,000  Level Cleveland Center
12:06PM 42.2214 -84.8244 285° West 395 455 26,000  Level Cleveland Center
12:07PM 42.2506 -84.9683 285° West 397 457 26,000  Level Cleveland Center
12:08PM 42.2781 -85.1142 284° West 401 461 26,000  Level Cleveland Center
12:09PM 42.3128 -85.2889 285° West 403 464 26,000  Level Cleveland Center
12:11PM 42.3400 -85.4358 284° West 404 465 26,000 -420 Level Cleveland Center
12:12PM 42.3650 -85.5631 285° West 401 461 25,200 -1,140 Descending Cleveland Center
12:13PM 42.3914 -85.7047 284° West 393 452 23,700 -1,560 Descending Cleveland Center
12:14PM 42.4222 -85.8700 284° West 379 436 22,100 -1,500 Descending Cleveland Center
12:15PM 42.4489 -86.0078 285° West 377 434 20,700 -1,380 Descending Cleveland Center
12:16PM 42.4758 -86.1414 285° West 375 432 19,300 -1,680 Descending Cleveland Center
12:17PM 42.4967 -86.2639 283° West 342 394 17,300 -1,740 Descending Cleveland Center
12:18PM 42.4792 -86.4094 261° West 330 380 15,200 -1,620 Descending Chicago Center
12:19PM 42.4661 -86.5611 263° West 336 387 13,500 -1,440 Descending Chicago Center
12:20PM 42.4553 -86.6872 263° West 336 387 12,300 -1,380 Descending Chicago Center
12:21PM 42.4456 -86.8139 264° West 338 389 10,800 -1,620 Descending Chicago Center
12:22PM 42.4353 -86.9192 262° West 286 329 9,100 -1,680 Descending Chicago Center
12:23PM 42.4256 -87.0231 263° West 278 320 7,400 -1,560 Descending Chicago Center
12:24PM 42.4156 -87.1197 262° West 264 304 6,000 -1,500 Descending Chicago Center
12:25PM 42.4081 -87.2167 264° West 260 299 4,400 -1,320 Descending Chicago Center
12:26PM 42.3978 -87.3261 263° West 259 298 3,400 -480 Descending Chicago Center
12:28PM 42.3667 -87.5167 258° West 264 304 3,000 -180 Descending Chicago TRACON
12:29PM 42.3667 -87.6167 270° West 248 285 3,000  Level Chicago TRACON
12:30PM 42.3500 -87.7000 255° West 257 296 3,000  Level Chicago TRACON
12:31PM 42.3333 -87.8000 257° West 262 302 3,000 -300 Level Chicago TRACON
12:32PM 42.3167 -87.8833 255° West 223 257 2,500 -360 Descending Chicago TRACON
12:33PM 42.2833 -87.9333 228° Southwest 197 227 2,400 -120 Descending Chicago TRACON
12:34PM 42.2625 -87.9722 234° Southwest 219 252 2,400  Level Chicago Center
12:35PM 42.2031 -87.9503 165° South 224 258 2,400 -240 Level Chicago Center
12:36PM 42.1472 -87.9192 158° South 224 258 2,000 -420 Descending Chicago Center